sensor_id;sensor_type;location;lat;lon;timestamp;pressure;altitude;pressure_sealevel;temperature;humidity
45078;BME280;60508;42.622;25.416;2023-03-15T00:01:10;95937.97;;;6.98;47.42
45078;BME280;60508;42.622;25.416;2023-03-15T00:03:40;95926.00;;;7.01;47.78
45078;BME280;60508;42.622;25.416;2023-03-15T00:06:06;95926.34;;;7.04;47.70
45078;BME280;60508;42.622;25.416;2023-03-15T00:08:32;95920.16;;;7.04;47.64
45078;BME280;60508;42.622;25.416;2023-03-15T00:10:59;95922.13;;;6.91;48.22
45078;BME280;60508;42.622;25.416;2023-03-15T00:13:25;95912.41;;;7.02;48.50
45078;BME280;60508;42.622;25.416;2023-03-15T00:15:55;95913.88;;;7.10;47.25
45078;BME280;60508;42.622;25.416;2023-03-15T00:18:22;95909.00;;;6.90;47.72
45078;BME280;60508;42.622;25.416;2023-03-15T00:20:48;95909.44;;;6.70;48.12
45078;BME280;60508;42.622;25.416;2023-03-15T00:23:14;95903.63;;;6.56;48.80
45078;BME280;60508;42.622;25.416;2023-03-15T00:25:44;95903.63;;;6.73;48.96
45078;BME280;60508;42.622;25.416;2023-03-15T00:28:11;95890.88;;;6.92;48.90
45078;BME280;60508;42.622;25.416;2023-03-15T00:30:38;95882.47;;;7.00;48.73
45078;BME280;60508;42.622;25.416;2023-03-15T00:33:04;95885.63;;;6.97;48.71
45078;BME280;60508;42.622;25.416;2023-03-15T00:35:31;95870.63;;;6.79;49.05
45078;BME280;60508;42.622;25.416;2023-03-15T00:38:01;95867.00;;;6.85;49.11
45078;BME280;60508;42.622;25.416;2023-03-15T00:40:27;95868.69;;;6.74;49.43
45078;BME280;60508;42.622;25.416;2023-03-15T00:42:53;95863.97;;;6.65;50.17
45078;BME280;60508;42.622;25.416;2023-03-15T00:45:20;95846.53;;;6.74;50.40
45078;BME280;60508;42.622;25.416;2023-03-15T00:47:50;95851.16;;;6.79;50.42
45078;BME280;60508;42.622;25.416;2023-03-15T00:50:17;95846.13;;;6.82;49.62
45078;BME280;60508;42.622;25.416;2023-03-15T00:52:44;95845.22;;;6.76;49.64
45078;BME280;60508;42.622;25.416;2023-03-15T00:55:13;95836.22;;;6.49;50.18
45078;BME280;60508;42.622;25.416;2023-03-15T00:57:40;95837.53;;;6.46;50.54
45078;BME280;60508;42.622;25.416;2023-03-15T01:00:11;95838.31;;;6.47;50.31
45078;BME280;60508;42.622;25.416;2023-03-15T01:02:39;95836.75;;;6.34;51.25
45078;BME280;60508;42.622;25.416;2023-03-15T01:05:07;95837.25;;;6.31;51.22
45078;BME280;60508;42.622;25.416;2023-03-15T01:07:34;95832.63;;;6.26;51.49
45078;BME280;60508;42.622;25.416;2023-03-15T01:10:01;95817.44;;;6.27;51.89
45078;BME280;60508;42.622;25.416;2023-03-15T01:12:30;95805.31;;;6.36;51.66
45078;BME280;60508;42.622;25.416;2023-03-15T01:15:03;95813.03;;;6.49;51.70
45078;BME280;60508;42.622;25.416;2023-03-15T01:17:30;95809.28;;;6.33;51.64
45078;BME280;60508;42.622;25.416;2023-03-15T01:19:57;95798.53;;;6.45;51.28
45078;BME280;60508;42.622;25.416;2023-03-15T01:22:23;95795.56;;;6.42;51.13
45078;BME280;60508;42.622;25.416;2023-03-15T01:24:49;95800.16;;;6.46;50.72
45078;BME280;60508;42.622;25.416;2023-03-15T01:27:17;95798.38;;;6.52;51.34
45078;BME280;60508;42.622;25.416;2023-03-15T01:29:44;95792.25;;;6.51;51.21
45078;BME280;60508;42.622;25.416;2023-03-15T01:32:12;95792.81;;;6.36;51.45
45078;BME280;60508;42.622;25.416;2023-03-15T01:34:41;95790.03;;;6.31;51.77
45078;BME280;60508;42.622;25.416;2023-03-15T01:37:08;95788.66;;;6.46;51.79
45078;BME280;60508;42.622;25.416;2023-03-15T01:39:40;95777.44;;;6.44;51.83
45078;BME280;60508;42.622;25.416;2023-03-15T01:42:08;95779.69;;;6.52;51.95
45078;BME280;60508;42.622;25.416;2023-03-15T01:44:55;95765.00;;;6.49;52.18
45078;BME280;60508;42.622;25.416;2023-03-15T01:47:22;95756.47;;;6.52;51.79
45078;BME280;60508;42.622;25.416;2023-03-15T01:50:05;95756.19;;;6.66;51.10
45078;BME280;60508;42.622;25.416;2023-03-15T01:52:36;95743.00;;;6.42;52.13
45078;BME280;60508;42.622;25.416;2023-03-15T01:55:07;95765.06;;;6.37;52.80
45078;BME280;60508;42.622;25.416;2023-03-15T01:57:40;95758.50;;;6.45;52.00
45078;BME280;60508;42.622;25.416;2023-03-15T02:00:12;95765.31;;;6.53;52.14
45078;BME280;60508;42.622;25.416;2023-03-15T02:02:49;95758.38;;;6.35;51.77
45078;BME280;60508;42.622;25.416;2023-03-15T02:05:27;95763.75;;;6.23;52.44
45078;BME280;60508;42.622;25.416;2023-03-15T02:07:58;95771.81;;;6.11;52.48
45078;BME280;60508;42.622;25.416;2023-03-15T02:10:50;95772.44;;;6.01;52.86
45078;BME280;60508;42.622;25.416;2023-03-15T02:13:19;95775.03;;;5.96;52.98
45078;BME280;60508;42.622;25.416;2023-03-15T02:15:51;95778.59;;;5.90;53.36
45078;BME280;60508;42.622;25.416;2023-03-15T02:18:34;95780.03;;;5.81;54.07
45078;BME280;60508;42.622;25.416;2023-03-15T02:23:44;95757.06;;;4.87;57.06
45078;BME280;60508;42.622;25.416;2023-03-15T02:26:29;95767.69;;;4.99;57.16
45078;BME280;60508;42.622;25.416;2023-03-15T02:28:59;95775.81;;;5.16;56.87
45078;BME280;60508;42.622;25.416;2023-03-15T02:31:26;95770.78;;;5.31;55.86
45078;BME280;60508;42.622;25.416;2023-03-15T02:33:52;95777.94;;;5.54;54.47
45078;BME280;60508;42.622;25.416;2023-03-15T02:36:25;95773.88;;;5.52;54.58
45078;BME280;60508;42.622;25.416;2023-03-15T02:38:52;95768.53;;;5.52;54.43
45078;BME280;60508;42.622;25.416;2023-03-15T02:41:32;95768.88;;;5.55;54.31
45078;BME280;60508;42.622;25.416;2023-03-15T02:44:08;95767.59;;;5.58;53.78
45078;BME280;60508;42.622;25.416;2023-03-15T02:46:36;95763.75;;;5.65;53.06
45078;BME280;60508;42.622;25.416;2023-03-15T02:49:04;95761.59;;;5.79;52.53
45078;BME280;60508;42.622;25.416;2023-03-15T02:51:32;95762.25;;;5.98;51.78
45078;BME280;60508;42.622;25.416;2023-03-15T02:53:58;95755.06;;;5.99;52.00
45078;BME280;60508;42.622;25.416;2023-03-15T02:56:24;95741.50;;;6.00;52.02
45078;BME280;60508;42.622;25.416;2023-03-15T02:58:51;95743.19;;;6.07;52.26
45078;BME280;60508;42.622;25.416;2023-03-15T03:01:18;95750.63;;;6.05;52.38
45078;BME280;60508;42.622;25.416;2023-03-15T03:03:45;95746.81;;;6.00;53.26
45078;BME280;60508;42.622;25.416;2023-03-15T03:06:14;95746.34;;;6.03;52.93
45078;BME280;60508;42.622;25.416;2023-03-15T03:08:40;95746.09;;;6.05;52.75
45078;BME280;60508;42.622;25.416;2023-03-15T03:11:08;95743.19;;;6.07;53.20
45078;BME280;60508;42.622;25.416;2023-03-15T03:13:36;95734.00;;;6.14;52.92
45078;BME280;60508;42.622;25.416;2023-03-15T03:16:03;95728.59;;;6.26;52.41
45078;BME280;60508;42.622;25.416;2023-03-15T03:18:31;95734.19;;;6.42;51.65
45078;BME280;60508;42.622;25.416;2023-03-15T03:21:06;95729.00;;;6.52;50.64
45078;BME280;60508;42.622;25.416;2023-03-15T03:23:34;95735.53;;;6.44;50.59
45078;BME280;60508;42.622;25.416;2023-03-15T03:26:01;95742.41;;;6.23;51.38
45078;BME280;60508;42.622;25.416;2023-03-15T03:28:30;95736.19;;;6.17;51.49
45078;BME280;60508;42.622;25.416;2023-03-15T03:30:58;95725.09;;;6.09;51.75
45078;BME280;60508;42.622;25.416;2023-03-15T03:33:26;95729.63;;;6.08;51.77
45078;BME280;60508;42.622;25.416;2023-03-15T03:35:52;95725.28;;;6.19;52.07
45078;BME280;60508;42.622;25.416;2023-03-15T03:38:19;95726.56;;;6.16;51.43
45078;BME280;60508;42.622;25.416;2023-03-15T03:40:52;95730.59;;;6.02;51.85
45078;BME280;60508;42.622;25.416;2023-03-15T03:43:19;95724.13;;;5.98;51.15
45078;BME280;60508;42.622;25.416;2023-03-15T03:45:45;95721.06;;;5.77;51.48
45078;BME280;60508;42.622;25.416;2023-03-15T03:48:11;95724.13;;;5.86;51.76
45078;BME280;60508;42.622;25.416;2023-03-15T03:50:38;95728.59;;;5.80;52.15
45078;BME280;60508;42.622;25.416;2023-03-15T03:53:04;95731.53;;;5.67;52.61
45078;BME280;60508;42.622;25.416;2023-03-15T03:55:33;95735.28;;;5.54;53.56
45078;BME280;60508;42.622;25.416;2023-03-15T03:58:00;95731.94;;;5.47;53.45
45078;BME280;60508;42.622;25.416;2023-03-15T04:00:37;95733.63;;;5.36;54.19
45078;BME280;60508;42.622;25.416;2023-03-15T04:03:05;95724.66;;;5.54;52.90
45078;BME280;60508;42.622;25.416;2023-03-15T04:05:34;95732.19;;;5.45;52.66
45078;BME280;60508;42.622;25.416;2023-03-15T04:08:00;95733.84;;;5.35;52.82
45078;BME280;60508;42.622;25.416;2023-03-15T04:10:31;95726.72;;;5.11;52.90
45078;BME280;60508;42.622;25.416;2023-03-15T04:13:00;95726.94;;;5.22;53.17
45078;BME280;60508;42.622;25.416;2023-03-15T04:15:26;95725.41;;;5.26;53.11
45078;BME280;60508;42.622;25.416;2023-03-15T04:17:53;95706.25;;;5.12;52.79
45078;BME280;60508;42.622;25.416;2023-03-15T04:20:25;95723.47;;;5.09;53.36
45078;BME280;60508;42.622;25.416;2023-03-15T04:22:53;95729.59;;;5.10;53.22
45078;BME280;60508;42.622;25.416;2023-03-15T04:25:31;95729.84;;;5.08;53.40
45078;BME280;60508;42.622;25.416;2023-03-15T04:28:24;95727.88;;;5.16;53.03
45078;BME280;60508;42.622;25.416;2023-03-15T04:31:29;95732.59;;;5.25;52.67
45078;BME280;60508;42.622;25.416;2023-03-15T04:34:16;95724.88;;;5.12;53.10
45078;BME280;60508;42.622;25.416;2023-03-15T04:37:14;95728.91;;;5.15;53.43
45078;BME280;60508;42.622;25.416;2023-03-15T04:40:16;95736.00;;;4.97;54.45
45078;BME280;60508;42.622;25.416;2023-03-15T04:43:04;95722.69;;;5.09;54.37
45078;BME280;60508;42.622;25.416;2023-03-15T04:45:49;95736.16;;;5.31;53.81
45078;BME280;60508;42.622;25.416;2023-03-15T04:48:48;95730.88;;;5.19;54.38
45078;BME280;60508;42.622;25.416;2023-03-15T04:51:30;95739.69;;;5.08;55.33
45078;BME280;60508;42.622;25.416;2023-03-15T04:54:21;95741.66;;;5.53;53.14
45078;BME280;60508;42.622;25.416;2023-03-15T04:57:11;95725.38;;;5.66;52.13
45078;BME280;60508;42.622;25.416;2023-03-15T04:59:47;95734.22;;;5.55;52.74
45078;BME280;60508;42.622;25.416;2023-03-15T05:02:33;95726.56;;;5.30;53.56
45078;BME280;60508;42.622;25.416;2023-03-15T05:05:32;95712.50;;;5.06;54.80
45078;BME280;60508;42.622;25.416;2023-03-15T05:08:08;95716.16;;;5.28;54.75
45078;BME280;60508;42.622;25.416;2023-03-15T05:10:50;95721.09;;;5.37;54.16
45078;BME280;60508;42.622;25.416;2023-03-15T05:13:36;95720.31;;;5.36;54.13
45078;BME280;60508;42.622;25.416;2023-03-15T05:16:14;95720.53;;;5.35;54.40
45078;BME280;60508;42.622;25.416;2023-03-15T05:18:40;95718.78;;;5.40;54.77
45078;BME280;60508;42.622;25.416;2023-03-15T05:21:27;95714.78;;;5.55;54.29
45078;BME280;60508;42.622;25.416;2023-03-15T05:24:11;95717.13;;;5.39;54.41
45078;BME280;60508;42.622;25.416;2023-03-15T05:27:09;95715.16;;;4.94;56.01
45078;BME280;60508;42.622;25.416;2023-03-15T05:29:53;95721.25;;;5.30;55.24
45078;BME280;60508;42.622;25.416;2023-03-15T05:32:48;95716.78;;;5.47;54.03
45078;BME280;60508;42.622;25.416;2023-03-15T05:35:30;95700.91;;;5.53;54.27
45078;BME280;60508;42.622;25.416;2023-03-15T05:38:12;95699.59;;;5.55;53.77
45078;BME280;60508;42.622;25.416;2023-03-15T05:40:45;95688.31;;;5.65;53.77
45078;BME280;60508;42.622;25.416;2023-03-15T05:43:47;95692.69;;;5.71;53.58
45078;BME280;60508;42.622;25.416;2023-03-15T05:46:32;95688.69;;;5.85;53.27
45078;BME280;60508;42.622;25.416;2023-03-15T05:49:23;95691.19;;;5.92;53.27
45078;BME280;60508;42.622;25.416;2023-03-15T05:51:59;95683.00;;;6.11;52.24
45078;BME280;60508;42.622;25.416;2023-03-15T05:54:35;95689.63;;;6.08;52.01
45078;BME280;60508;42.622;25.416;2023-03-15T05:57:09;95690.63;;;6.19;51.26
45078;BME280;60508;42.622;25.416;2023-03-15T05:59:47;95682.94;;;6.22;51.64
45078;BME280;60508;42.622;25.416;2023-03-15T06:02:39;95699.25;;;6.43;51.03
45078;BME280;60508;42.622;25.416;2023-03-15T06:05:20;95709.41;;;6.63;50.25
45078;BME280;60508;42.622;25.416;2023-03-15T06:07:46;95713.19;;;6.84;49.55
45078;BME280;60508;42.622;25.416;2023-03-15T06:10:14;95704.94;;;6.86;49.74
45078;BME280;60508;42.622;25.416;2023-03-15T06:12:40;95707.34;;;6.87;49.16
45078;BME280;60508;42.622;25.416;2023-03-15T06:15:07;95720.50;;;6.72;49.93
45078;BME280;60508;42.622;25.416;2023-03-15T06:17:34;95724.53;;;6.91;49.48
45078;BME280;60508;42.622;25.416;2023-03-15T06:20:00;95726.13;;;6.92;49.55
45078;BME280;60508;42.622;25.416;2023-03-15T06:22:25;95729.13;;;6.79;49.57
45078;BME280;60508;42.622;25.416;2023-03-15T06:24:57;95726.03;;;6.48;50.10
45078;BME280;60508;42.622;25.416;2023-03-15T06:27:24;95733.19;;;6.65;50.50
45078;BME280;60508;42.622;25.416;2023-03-15T06:29:52;95729.84;;;6.91;49.89
45078;BME280;60508;42.622;25.416;2023-03-15T06:32:21;95723.78;;;7.18;49.12
45078;BME280;60508;42.622;25.416;2023-03-15T06:34:48;95710.63;;;7.34;48.87
45078;BME280;60508;42.622;25.416;2023-03-15T06:37:14;95708.81;;;7.39;49.08
45078;BME280;60508;42.622;25.416;2023-03-15T06:39:40;95719.50;;;7.39;49.43
45078;BME280;60508;42.622;25.416;2023-03-15T06:42:07;95716.59;;;7.41;50.04
45078;BME280;60508;42.622;25.416;2023-03-15T06:44:37;95720.09;;;7.41;50.33
45078;BME280;60508;42.622;25.416;2023-03-15T06:47:07;95721.19;;;7.45;50.54
45078;BME280;60508;42.622;25.416;2023-03-15T06:49:33;95720.78;;;7.59;49.92
45078;BME280;60508;42.622;25.416;2023-03-15T06:52:01;95720.03;;;7.63;50.22
45078;BME280;60508;42.622;25.416;2023-03-15T06:54:28;95718.34;;;7.79;49.79
45078;BME280;60508;42.622;25.416;2023-03-15T06:56:54;95702.72;;;7.93;48.94
45078;BME280;60508;42.622;25.416;2023-03-15T06:59:20;95708.06;;;7.93;49.70
45078;BME280;60508;42.622;25.416;2023-03-15T07:01:47;95711.13;;;8.07;49.13
45078;BME280;60508;42.622;25.416;2023-03-15T07:04:13;95700.84;;;8.26;49.48
45078;BME280;60508;42.622;25.416;2023-03-15T07:06:39;95706.34;;;8.41;49.09
45078;BME280;60508;42.622;25.416;2023-03-15T07:09:05;95698.81;;;8.38;48.91
45078;BME280;60508;42.622;25.416;2023-03-15T07:11:31;95701.88;;;8.52;48.95
45078;BME280;60508;42.622;25.416;2023-03-15T07:13:58;95701.56;;;8.86;47.04
45078;BME280;60508;42.622;25.416;2023-03-15T07:16:24;95705.09;;;8.87;46.57
45078;BME280;60508;42.622;25.416;2023-03-15T07:18:51;95701.75;;;8.69;47.08
45078;BME280;60508;42.622;25.416;2023-03-15T07:21:20;95702.31;;;8.76;47.02
45078;BME280;60508;42.622;25.416;2023-03-15T07:23:46;95694.38;;;8.87;46.87
45078;BME280;60508;42.622;25.416;2023-03-15T07:26:12;95697.53;;;8.79;47.77
45078;BME280;60508;42.622;25.416;2023-03-15T07:28:38;95688.94;;;8.76;47.58
45078;BME280;60508;42.622;25.416;2023-03-15T07:31:05;95692.22;;;8.89;47.80
45078;BME280;60508;42.622;25.416;2023-03-15T07:33:32;95681.31;;;9.01;47.80
45078;BME280;60508;42.622;25.416;2023-03-15T07:36:00;95684.31;;;9.14;46.94
45078;BME280;60508;42.622;25.416;2023-03-15T07:38:28;95682.50;;;9.25;46.87
45078;BME280;60508;42.622;25.416;2023-03-15T07:40:55;95683.59;;;9.35;46.61
45078;BME280;60508;42.622;25.416;2023-03-15T07:43:21;95681.47;;;9.37;46.73
45078;BME280;60508;42.622;25.416;2023-03-15T07:45:50;95688.69;;;9.36;46.83
45078;BME280;60508;42.622;25.416;2023-03-15T07:48:16;95681.25;;;9.48;47.14
45078;BME280;60508;42.622;25.416;2023-03-15T07:50:42;95689.56;;;9.62;46.38
45078;BME280;60508;42.622;25.416;2023-03-15T07:53:08;95684.00;;;9.84;46.34
45078;BME280;60508;42.622;25.416;2023-03-15T07:55:34;95676.78;;;9.90;46.47
45078;BME280;60508;42.622;25.416;2023-03-15T07:58:01;95672.75;;;9.87;46.04
45078;BME280;60508;42.622;25.416;2023-03-15T08:00:27;95667.38;;;9.72;47.04
45078;BME280;60508;42.622;25.416;2023-03-15T08:02:54;95675.97;;;9.84;46.46
45078;BME280;60508;42.622;25.416;2023-03-15T08:05:20;95672.25;;;10.16;47.00
45078;BME280;60508;42.622;25.416;2023-03-15T08:07:47;95667.44;;;10.39;45.74
45078;BME280;60508;42.622;25.416;2023-03-15T08:10:15;95672.75;;;10.80;45.67
45078;BME280;60508;42.622;25.416;2023-03-15T08:12:41;95671.47;;;10.36;45.49
45078;BME280;60508;42.622;25.416;2023-03-15T08:15:12;95669.25;;;10.90;44.80
45078;BME280;60508;42.622;25.416;2023-03-15T08:17:40;95671.44;;;10.77;44.03
45078;BME280;60508;42.622;25.416;2023-03-15T08:20:07;95667.94;;;10.72;44.35
45078;BME280;60508;42.622;25.416;2023-03-15T08:22:40;95658.03;;;11.43;43.15
45078;BME280;60508;42.622;25.416;2023-03-15T08:25:10;95659.03;;;12.07;41.74
45078;BME280;60508;42.622;25.416;2023-03-15T08:27:38;95646.66;;;12.40;41.51
45078;BME280;60508;42.622;25.416;2023-03-15T08:30:04;95645.47;;;12.22;40.86
45078;BME280;60508;42.622;25.416;2023-03-15T08:32:31;95640.06;;;11.83;42.13
45078;BME280;60508;42.622;25.416;2023-03-15T08:34:57;95639.59;;;11.70;42.33
45078;BME280;60508;42.622;25.416;2023-03-15T08:37:23;95651.41;;;12.54;41.26
45078;BME280;60508;42.622;25.416;2023-03-15T08:39:49;95636.63;;;13.00;40.23
45078;BME280;60508;42.622;25.416;2023-03-15T08:42:22;95637.75;;;13.47;39.41
45078;BME280;60508;42.622;25.416;2023-03-15T08:44:48;95627.28;;;12.68;39.91
45078;BME280;60508;42.622;25.416;2023-03-15T08:47:15;95634.28;;;12.05;40.72
45078;BME280;60508;42.622;25.416;2023-03-15T08:49:41;95614.25;;;11.77;42.39
45078;BME280;60508;42.622;25.416;2023-03-15T08:52:07;95621.00;;;12.77;41.15
45078;BME280;60508;42.622;25.416;2023-03-15T08:54:33;95620.91;;;13.31;39.86
45078;BME280;60508;42.622;25.416;2023-03-15T08:56:59;95596.09;;;13.72;39.38
45078;BME280;60508;42.622;25.416;2023-03-15T08:59:26;95616.75;;;13.44;38.52
45078;BME280;60508;42.622;25.416;2023-03-15T09:01:52;95611.53;;;13.85;37.68
45078;BME280;60508;42.622;25.416;2023-03-15T09:04:18;95597.84;;;14.94;36.59
45078;BME280;60508;42.622;25.416;2023-03-15T09:06:44;95585.69;;;15.84;34.22
45078;BME280;60508;42.622;25.416;2023-03-15T09:09:10;95574.50;;;17.16;32.47
45078;BME280;60508;42.622;25.416;2023-03-15T09:11:37;95577.22;;;19.12;29.19
45078;BME280;60508;42.622;25.416;2023-03-15T09:14:03;95566.00;;;18.84;28.39
45078;BME280;60508;42.622;25.416;2023-03-15T09:16:29;95576.28;;;19.08;27.96
45078;BME280;60508;42.622;25.416;2023-03-15T09:18:55;95572.44;;;18.61;27.50
45078;BME280;60508;42.622;25.416;2023-03-15T09:21:22;95587.03;;;17.61;28.38
45078;BME280;60508;42.622;25.416;2023-03-15T09:23:49;95577.31;;;17.68;28.57
45078;BME280;60508;42.622;25.416;2023-03-15T09:26:16;95565.97;;;18.10;28.90
45078;BME280;60508;42.622;25.416;2023-03-15T09:28:41;95566.44;;;19.54;27.36
45078;BME280;60508;42.622;25.416;2023-03-15T09:31:07;95582.09;;;19.87;25.95
45078;BME280;60508;42.622;25.416;2023-03-15T09:33:34;95566.94;;;20.65;25.00
45078;BME280;60508;42.622;25.416;2023-03-15T09:35:59;95573.66;;;22.19;23.55
45078;BME280;60508;42.622;25.416;2023-03-15T09:38:27;95567.63;;;21.85;24.01
45078;BME280;60508;42.622;25.416;2023-03-15T09:40:57;95563.50;;;21.92;23.97
45078;BME280;60508;42.622;25.416;2023-03-15T09:43:46;95560.94;;;23.00;23.15
45078;BME280;60508;42.622;25.416;2023-03-15T09:49:00;95542.06;;;25.82;20.05
45078;BME280;60508;42.622;25.416;2023-03-15T09:51:45;95547.19;;;25.84;19.46
45078;BME280;60508;42.622;25.416;2023-03-15T09:54:23;95557.28;;;23.79;20.70
45078;BME280;60508;42.622;25.416;2023-03-15T09:56:56;95558.34;;;22.91;22.64
45078;BME280;60508;42.622;25.416;2023-03-15T09:59:36;95552.16;;;23.42;22.02
45078;BME280;60508;42.622;25.416;2023-03-15T10:02:22;95551.56;;;23.17;22.15
45078;BME280;60508;42.622;25.416;2023-03-15T10:04:58;95564.53;;;23.51;21.55
45078;BME280;60508;42.622;25.416;2023-03-15T10:07:24;95552.09;;;23.58;21.65
45078;BME280;60508;42.622;25.416;2023-03-15T10:09:51;95560.38;;;22.78;22.39
45078;BME280;60508;42.622;25.416;2023-03-15T10:12:24;95557.94;;;22.45;22.71
45078;BME280;60508;42.622;25.416;2023-03-15T10:23:04;95544.06;;;20.57;25.01
45078;BME280;60508;42.622;25.416;2023-03-15T10:25:36;95544.19;;;20.73;24.38
45078;BME280;60508;42.622;25.416;2023-03-15T10:28:12;95545.50;;;21.13;24.68
45078;BME280;60508;42.622;25.416;2023-03-15T10:30:46;95538.22;;;20.47;25.14
45078;BME280;60508;42.622;25.416;2023-03-15T10:33:33;95524.53;;;20.22;25.55
45078;BME280;60508;42.622;25.416;2023-03-15T10:36:07;95523.16;;;20.16;25.91
45078;BME280;60508;42.622;25.416;2023-03-15T10:38:36;95526.31;;;23.07;22.93
45078;BME280;60508;42.622;25.416;2023-03-15T10:41:04;95521.09;;;24.09;21.42
45078;BME280;60508;42.622;25.416;2023-03-15T10:43:35;95519.03;;;25.37;20.18
45078;BME280;60508;42.622;25.416;2023-03-15T10:46:08;95522.00;;;24.36;20.44
45078;BME280;60508;42.622;25.416;2023-03-15T10:48:51;95508.34;;;25.32;19.98
45078;BME280;60508;42.622;25.416;2023-03-15T10:51:28;95510.22;;;26.49;18.77
45078;BME280;60508;42.622;25.416;2023-03-15T10:53:58;95505.31;;;27.77;18.14
45078;BME280;60508;42.622;25.416;2023-03-15T10:56:27;95509.97;;;28.68;17.01
45078;BME280;60508;42.622;25.416;2023-03-15T10:58:56;95504.88;;;29.06;16.32
45078;BME280;60508;42.622;25.416;2023-03-15T11:01:30;95498.94;;;28.64;17.33
45078;BME280;60508;42.622;25.416;2023-03-15T11:06:42;95493.00;;;29.16;16.20
45078;BME280;60508;42.622;25.416;2023-03-15T11:09:19;95489.56;;;26.70;18.62
45078;BME280;60508;42.622;25.416;2023-03-15T11:14:33;95478.88;;;25.06;20.05
45078;BME280;60508;42.622;25.416;2023-03-15T11:17:01;95482.94;;;23.45;21.21
45078;BME280;60508;42.622;25.416;2023-03-15T11:19:31;95481.13;;;24.31;21.27
45078;BME280;60508;42.622;25.416;2023-03-15T11:21:58;95481.56;;;26.99;18.53
45078;BME280;60508;42.622;25.416;2023-03-15T11:24:26;95478.84;;;25.90;19.20
45078;BME280;60508;42.622;25.416;2023-03-15T11:26:54;95472.00;;;25.46;19.54
45078;BME280;60508;42.622;25.416;2023-03-15T11:29:24;95471.09;;;24.62;20.58
45078;BME280;60508;42.622;25.416;2023-03-15T11:31:52;95463.81;;;23.48;21.32
45078;BME280;60508;42.622;25.416;2023-03-15T11:34:39;95464.16;;;21.47;23.47
45078;BME280;60508;42.622;25.416;2023-03-15T11:37:13;95463.16;;;18.59;26.60
45078;BME280;60508;42.622;25.416;2023-03-15T11:39:51;95469.81;;;18.71;26.96
45078;BME280;60508;42.622;25.416;2023-03-15T11:42:24;95455.97;;;18.55;27.06
45078;BME280;60508;42.622;25.416;2023-03-15T11:44:57;95458.63;;;18.34;27.62
45078;BME280;60508;42.622;25.416;2023-03-15T11:50:02;95456.91;;;18.20;27.99
45078;BME280;60508;42.622;25.416;2023-03-15T11:52:28;95455.06;;;17.77;28.59
45078;BME280;60508;42.622;25.416;2023-03-15T11:54:57;95438.91;;;17.81;28.53
45078;BME280;60508;42.622;25.416;2023-03-15T12:00:25;95449.97;;;17.49;29.11
45078;BME280;60508;42.622;25.416;2023-03-15T12:06:55;95429.94;;;16.67;30.30
45078;BME280;60508;42.622;25.416;2023-03-15T12:08:59;95435.34;;;16.67;30.28
45078;BME280;60508;42.622;25.416;2023-03-15T12:16:29;95427.28;;;17.02;30.31
45078;BME280;60508;42.622;25.416;2023-03-15T12:19:00;95430.63;;;16.90;30.64
45078;BME280;60508;42.622;25.416;2023-03-15T12:21:37;95428.69;;;16.82;30.69
45078;BME280;60508;42.622;25.416;2023-03-15T12:24:21;95434.16;;;17.34;30.19
45078;BME280;60508;42.622;25.416;2023-03-15T12:26:57;95426.13;;;17.73;31.79
45078;BME280;60508;42.622;25.416;2023-03-15T12:29:26;95432.00;;;18.10;29.33
45078;BME280;60508;42.622;25.416;2023-03-15T12:34:48;95428.22;;;19.00;29.15
45078;BME280;60508;42.622;25.416;2023-03-15T12:37:42;95430.28;;;19.03;28.73
45078;BME280;60508;42.622;25.416;2023-03-15T12:58:47;95411.94;;;17.58;29.27
45078;BME280;60508;42.622;25.416;2023-03-15T13:01:17;95420.34;;;18.00;28.85
45078;BME280;60508;42.622;25.416;2023-03-15T13:03:43;95414.53;;;18.58;28.20
45078;BME280;60508;42.622;25.416;2023-03-15T13:14:03;95413.75;;;18.10;28.31
45078;BME280;60508;42.622;25.416;2023-03-15T13:16:42;95422.78;;;17.76;29.22
45078;BME280;60508;42.622;25.416;2023-03-15T13:19:21;95419.63;;;17.21;30.23
45078;BME280;60508;42.622;25.416;2023-03-15T13:22:21;95407.03;;;16.99;30.29
45078;BME280;60508;42.622;25.416;2023-03-15T13:30:33;95403.75;;;18.70;28.34
45078;BME280;60508;42.622;25.416;2023-03-15T13:33:25;95409.91;;;18.79;28.05
45078;BME280;60508;42.622;25.416;2023-03-15T13:36:03;95404.16;;;18.51;28.06
45078;BME280;60508;42.622;25.416;2023-03-15T13:38:32;95402.31;;;17.87;29.02
45078;BME280;60508;42.622;25.416;2023-03-15T13:41:00;95405.25;;;17.47;29.59
45078;BME280;60508;42.622;25.416;2023-03-15T13:43:32;95411.34;;;17.26;29.78
45078;BME280;60508;42.622;25.416;2023-03-15T13:45:59;95409.13;;;17.02;30.02
45078;BME280;60508;42.622;25.416;2023-03-15T13:48:30;95412.56;;;16.76;30.49
45078;BME280;60508;42.622;25.416;2023-03-15T13:51:19;95415.19;;;16.50;30.80
45078;BME280;60508;42.622;25.416;2023-03-15T13:53:46;95409.34;;;16.17;31.02
45078;BME280;60508;42.622;25.416;2023-03-15T13:56:19;95413.22;;;16.24;30.92
45078;BME280;60508;42.622;25.416;2023-03-15T13:58:47;95412.75;;;16.31;31.03
45078;BME280;60508;42.622;25.416;2023-03-15T14:01:15;95411.28;;;16.25;31.10
45078;BME280;60508;42.622;25.416;2023-03-15T14:03:46;95409.69;;;16.82;30.64
45078;BME280;60508;42.622;25.416;2023-03-15T14:06:22;95408.28;;;16.93;29.82
45078;BME280;60508;42.622;25.416;2023-03-15T14:08:52;95410.78;;;16.72;29.96
45078;BME280;60508;42.622;25.416;2023-03-15T14:13:57;95410.41;;;16.47;30.59
45078;BME280;60508;42.622;25.416;2023-03-15T14:16:45;95411.00;;;16.27;30.82
45078;BME280;60508;42.622;25.416;2023-03-15T14:19:18;95403.72;;;16.04;31.01
45078;BME280;60508;42.622;25.416;2023-03-15T14:21:56;95398.47;;;16.08;31.33
45078;BME280;60508;42.622;25.416;2023-03-15T14:24:36;95398.16;;;16.10;30.99
45078;BME280;60508;42.622;25.416;2023-03-15T14:27:25;95400.78;;;15.92;31.09
45078;BME280;60508;42.622;25.416;2023-03-15T14:29:54;95398.66;;;15.80;31.20